Back to Top

Language: 

My Weather Underground Personal Weather Station Historical Data with Graphs...

Delerius Weather Station Historical Data
Daily Summary for November 25, 2017 Units:  Metric    English   Both
« Previous Day
Next Day »
Daily Weekly Monthly Yearly Custom
  High: Low: Average:
Temperature: 6.4 °C 0.5 °C 3.1 °C
Dew Point: 2.9 °C -0.6 °C 1.3 °C
Humidity: 94 % 77 % 88 %
Wind Speed: 27.4 km/h 0 km/h 14.3 km/h
Wind Gust: 41.8 km/h - -
Wind:- - West
Pressure: 1017.2 hPa 1010.4 hPa -
Precipitation: 0.51 mm    
Historical Graphs
 
 
Tabular Data for November 25, 2017
Time Temperature Dew Point Pressure Wind Wind Speed Wind Gust Humidity Rainfall Rate (Hourly) solar Conditions
00:00 1.7 °C 0.8 °C 1010.7 hPa WNW 4.8 km/h 8 km/h 94 % 0 mm 0 W/m2
00:05 1.6 °C 0.7 °C 1010.7 hPa WNW 3.2 km/h 8 km/h 94 % 0 mm 0 W/m2
00:10 1.6 °C 0.7 °C 1011.1 hPa WSW 8 km/h 12.9 km/h 94 % 0 mm 0 W/m2
00:15 1.7 °C 0.8 °C 1010.7 hPa SW 3.2 km/h 6.4 km/h 94 % 0 mm 0 W/m2
00:20 1.8 °C 0.9 °C 1010.7 hPa SW 3.2 km/h 11.3 km/h 94 % 0 mm 0 W/m2
00:25 1.7 °C 0.8 °C 1010.7 hPa WSW 1.6 km/h 3.2 km/h 94 % 0 mm 0 W/m2
00:30 1.7 °C 0.8 °C 1010.7 hPa WSW 4.8 km/h 9.7 km/h 94 % 0 mm 0 W/m2
00:35 1.7 °C 0.8 °C 1010.7 hPa WSW 3.2 km/h 9.7 km/h 94 % 0 mm 0 W/m2
00:40 1.7 °C 0.8 °C 1010.7 hPa WSW 3.2 km/h 8 km/h 94 % 0 mm 0 W/m2
00:45 1.7 °C 0.8 °C 1010.7 hPa WSW 4.8 km/h 9.7 km/h 94 % 0 mm 0 W/m2
00:50 1.7 °C 0.7 °C 1010.7 hPa WSW 1.6 km/h 6.4 km/h 93 % 0 mm 0 W/m2
00:55 1.6 °C 0.6 °C 1010.7 hPa West 9.7 km/h 17.7 km/h 93 % 0 mm 0 W/m2
01:00 1.7 °C 0.7 °C 1010.7 hPa West 14.5 km/h 19.3 km/h 93 % 0 mm 0 W/m2
01:05 1.7 °C 0.7 °C 1010.7 hPa West 9.7 km/h 14.5 km/h 93 % 0 mm 0 W/m2
01:10 1.8 °C 0.8 °C 1010.7 hPa West 9.7 km/h 14.5 km/h 93 % 0 mm 0 W/m2
01:15 1.8 °C 0.8 °C 1010.7 hPa WNW 9.7 km/h 16.1 km/h 93 % 0 mm 0 W/m2
01:20 1.9 °C 0.9 °C 1010.7 hPa WNW 9.7 km/h 14.5 km/h 93 % 0 mm 0 W/m2
01:26 1.9 °C 0.9 °C 1010.7 hPa WNW 11.3 km/h 14.5 km/h 93 % 0 mm 0 W/m2
01:31 1.9 °C 0.7 °C 1010.7 hPa WNW 9.7 km/h 14.5 km/h 92 % 0 mm 0 W/m2
01:36 1.8 °C 0.6 °C 1010.7 hPa West 6.4 km/h 12.9 km/h 92 % 0 mm 0 W/m2
01:41 1.8 °C 0.6 °C 1010.7 hPa West 4.8 km/h 9.7 km/h 92 % 0.25 mm 0 W/m2
01:46 1.7 °C 0.6 °C 1010.7 hPa WNW 3.2 km/h 9.7 km/h 92 % 0.25 mm 0 W/m2
01:51 1.6 °C 0.4 °C 1010.7 hPa WNW 3.2 km/h 11.3 km/h 92 % 0.25 mm 0 W/m2
01:56 1.6 °C 0.4 °C 1010.7 hPa WNW 8 km/h 17.7 km/h 92 % 0.25 mm 0 W/m2
02:01 1.5 °C 0.3 °C 1010.7 hPa WNW 11.3 km/h 16.1 km/h 92 % 0.25 mm 0 W/m2
02:06 1.6 °C 0.4 °C 1010.7 hPa WNW 8 km/h 14.5 km/h 92 % 0.25 mm 0 W/m2
02:11 1.6 °C 0.4 °C 1011.1 hPa WNW 11.3 km/h 16.1 km/h 92 % 0.25 mm 0 W/m2
02:16 1.6 °C 0.4 °C 1010.7 hPa West 9.7 km/h 17.7 km/h 92 % 0.25 mm 0 W/m2
02:21 1.6 °C 0.4 °C 1010.7 hPa West 8 km/h 14.5 km/h 92 % 0.25 mm 0 W/m2
02:26 1.6 °C 0.4 °C 1010.7 hPa West 8 km/h 9.7 km/h 92 % 0.25 mm 0 W/m2
02:31 1.6 °C 0.4 °C 1010.7 hPa West 6.4 km/h 12.9 km/h 92 % 0.25 mm 0 W/m2
02:36 1.5 °C 0.3 °C 1010.7 hPa West 6.4 km/h 9.7 km/h 92 % 0.25 mm 0 W/m2
02:41 1.4 °C 0.2 °C 1010.7 hPa WNW 4.8 km/h 9.7 km/h 92 % 0 mm 0 W/m2
02:42 1.4 °C 0.2 °C 1010.7 hPa West 4.8 km/h 9.7 km/h 92 % 0 mm 0 W/m2
02:47 1.4 °C 0.2 °C 1010.7 hPa West 8 km/h 11.3 km/h 92 % 0 mm 0 W/m2
02:52 1.3 °C 0.2 °C 1010.7 hPa WNW 4.8 km/h 8 km/h 92 % 0 mm 0 W/m2
02:57 1.2 °C 0.1 °C 1010.7 hPa WNW 3.2 km/h 9.7 km/h 92 % 0 mm 0 W/m2
03:02 1.1 °C -0.1 °C 1010.7 hPa Calm   3.2 km/h 92 % 0 mm 0 W/m2
03:07 1 °C -0.2 °C 1010.7 hPa WNW 1.6 km/h 3.2 km/h 92 % 0 mm 0 W/m2
03:12 0.9 °C -0.3 °C 1010.7 hPa Calm     92 % 0 mm 0 W/m2
03:17 0.8 °C -0.3 °C 1010.7 hPa Calm   3.2 km/h 92 % 0 mm 0 W/m2
03:21 0.7 °C -0.4 °C 1010.7 hPa Calm     92 % 0 mm 0 W/m2
03:23 0.6 °C -0.6 °C 1010.7 hPa Calm   1.6 km/h 92 % 0 mm 0 W/m2
03:25 0.6 °C -0.6 °C 1010.4 hPa West 1.6 km/h 6.4 km/h 92 % 0 mm 0 W/m2
03:30 0.6 °C -0.4 °C 1010.4 hPa West 1.6 km/h 4.8 km/h 93 % 0 mm 0 W/m2
03:35 0.6 °C -0.4 °C 1010.4 hPa Calm   3.2 km/h 93 % 0 mm 0 W/m2
03:40 0.6 °C -0.4 °C 1010.4 hPa WSW 3.2 km/h 9.7 km/h 93 % 0 mm 0 W/m2
03:45 0.6 °C -0.4 °C 1010.4 hPa West 4.8 km/h 9.7 km/h 93 % 0 mm 0 W/m2
03:50 0.6 °C -0.4 °C 1010.4 hPa Calm   3.2 km/h 93 % 0 mm 0 W/m2
03:55 0.6 °C -0.4 °C 1010.4 hPa West 1.6 km/h 6.4 km/h 93 % 0 mm 0 W/m2
04:00 0.5 °C -0.5 °C 1010.4 hPa West 3.2 km/h 6.4 km/h 93 % 0 mm 0 W/m2
04:05 0.5 °C -0.5 °C 1010.4 hPa WSW 6.4 km/h 12.9 km/h 93 % 0 mm 0 W/m2
04:11 0.7 °C -0.2 °C 1010.4 hPa West 9.7 km/h 12.9 km/h 94 % 0 mm 0 W/m2
04:16 0.9 °C 0.1 °C 1010.4 hPa West 14.5 km/h 22.5 km/h 94 % 0 mm 0 W/m2
04:21 1.1 °C 0.2 °C 1010.4 hPa West 12.9 km/h 19.3 km/h 94 % 0 mm 0 W/m2
04:26 1.3 °C 0.4 °C 1010.4 hPa West 12.9 km/h 19.3 km/h 94 % 0 mm 0 W/m2
04:31 1.4 °C 0.6 °C 1010.4 hPa West 9.7 km/h 16.1 km/h 94 % 0 mm 0 W/m2
04:36 1.4 °C 0.4 °C 1010.4 hPa West 11.3 km/h 17.7 km/h 93 % 0 mm 0 W/m2
04:41 1.5 °C 0.5 °C 1010.4 hPa West 11.3 km/h 16.1 km/h 93 % 0 mm 0 W/m2
04:46 1.5 °C 0.5 °C 1010.4 hPa West 12.9 km/h 19.3 km/h 93 % 0 mm 0 W/m2
04:51 1.6 °C 0.6 °C 1010.4 hPa West 14.5 km/h 20.9 km/h 93 % 0 mm 0 W/m2
04:56 1.6 °C 0.6 °C 1010.4 hPa West 12.9 km/h 24.1 km/h 93 % 0 mm 0 W/m2
05:06 1.5 °C 0.3 °C 1010.4 hPa West 12.9 km/h 17.7 km/h 92 % 0 mm 0 W/m2
05:11 1.5 °C 0.3 °C 1010.4 hPa WNW 9.7 km/h 16.1 km/h 92 % 0 mm 0 W/m2
05:16 1.5 °C 0.3 °C 1010.4 hPa West 9.7 km/h 17.7 km/h 92 % 0 mm 0 W/m2
05:21 1.5 °C 0.3 °C 1010.4 hPa West 9.7 km/h 17.7 km/h 92 % 0 mm 0 W/m2
05:26 1.5 °C 0.3 °C 1010.4 hPa West 12.9 km/h 19.3 km/h 92 % 0 mm 0 W/m2
05:31 1.5 °C 0.3 °C 1010.4 hPa WNW 12.9 km/h 17.7 km/h 92 % 0 mm 0 W/m2
05:36 1.5 °C 0.3 °C 1010.4 hPa WNW 12.9 km/h 17.7 km/h 92 % 0 mm 0 W/m2
05:41 1.5 °C 0.5 °C 1010.4 hPa WNW 11.3 km/h 17.7 km/h 93 % 0 mm 0 W/m2
05:46 1.5 °C 0.5 °C 1010.4 hPa West 9.7 km/h 12.9 km/h 93 % 0 mm 0 W/m2
05:51 1.5 °C 0.5 °C 1010.4 hPa West 11.3 km/h 14.5 km/h 93 % 0 mm 0 W/m2
05:56 1.5 °C 0.5 °C 1010.4 hPa West 11.3 km/h 16.1 km/h 93 % 0 mm 0 W/m2
06:01 1.6 °C 0.6 °C 1010.4 hPa West 12.9 km/h 19.3 km/h 93 % 0 mm 0 W/m2
06:06 1.7 °C 0.6 °C 1010.4 hPa West 9.7 km/h 16.1 km/h 92 % 0 mm 0 W/m2
06:11 1.7 °C 0.6 °C 1010.7 hPa West 9.7 km/h 19.3 km/h 92 % 0 mm 0 W/m2
06:16 1.7 °C 0.6 °C 1010.7 hPa WNW 9.7 km/h 16.1 km/h 92 % 0 mm 0 W/m2
06:21 1.8 °C 0.6 °C 1010.7 hPa West 12.9 km/h 22.5 km/h 92 % 0 mm 0 W/m2
06:27 1.9 °C 0.7 °C 1010.7 hPa West 12.9 km/h 20.9 km/h 92 % 0 mm 0 W/m2
06:32 1.9 °C 0.7 °C 1010.7 hPa West 9.7 km/h 14.5 km/h 92 % 0 mm 0 W/m2
06:37 1.9 °C 0.7 °C 1010.7 hPa West 11.3 km/h 16.1 km/h 92 % 0 mm 0 W/m2
06:42 1.9 °C 0.7 °C 1011.1 hPa West 11.3 km/h 20.9 km/h 92 % 0 mm 0 W/m2
06:47 1.9 °C 0.7 °C 1010.7 hPa West 12.9 km/h 20.9 km/h 92 % 0 mm 0 W/m2
06:52 1.9 °C 0.9 °C 1010.4 hPa West 12.9 km/h 20.9 km/h 93 % 0 mm 0 W/m2
06:57 1.9 °C 0.9 °C 1010.4 hPa West 9.7 km/h 12.9 km/h 93 % 0 mm 0 W/m2
07:02 1.8 °C 0.8 °C 1010.4 hPa WNW 8 km/h 11.3 km/h 93 % 0 mm 0 W/m2
07:07 1.8 °C 0.8 °C 1010.4 hPa West 11.3 km/h 16.1 km/h 93 % 0 mm 0 W/m2
07:12 1.8 °C 0.8 °C 1010.4 hPa West 12.9 km/h 22.5 km/h 93 % 0 mm 0 W/m2
07:17 1.8 °C 0.8 °C 1010.4 hPa West 12.9 km/h 20.9 km/h 93 % 0 mm 0 W/m2
07:22 1.9 °C 0.9 °C 1010.4 hPa West 11.3 km/h 16.1 km/h 93 % 0 mm 0 W/m2
07:27 1.9 °C 0.9 °C 1010.4 hPa WNW 12.9 km/h 20.9 km/h 93 % 0 mm 0 W/m2
07:32 1.8 °C 0.6 °C 1010.7 hPa WNW 14.5 km/h 24.1 km/h 92 % 0 mm 0 W/m2
07:37 1.8 °C 0.6 °C 1010.7 hPa WNW 11.3 km/h 20.9 km/h 92 % 0 mm 0 W/m2
07:42 1.8 °C 0.6 °C 1011.1 hPa WNW 8 km/h 14.5 km/h 92 % 0 mm 0 W/m2
07:47 1.8 °C 0.6 °C 1011.1 hPa WNW 11.3 km/h 19.3 km/h 92 % 0 mm 0 W/m2
07:52 1.8 °C 0.6 °C 1011.1 hPa WNW 12.9 km/h 19.3 km/h 92 % 0 mm 5 W/m2
07:57 1.8 °C 0.6 °C 1011.1 hPa WNW 12.9 km/h 24.1 km/h 92 % 0 mm 5 W/m2
08:02 1.9 °C 0.7 °C 1011.4 hPa WNW 12.9 km/h 20.9 km/h 92 % 0 mm 7 W/m2
08:07 1.9 °C 0.7 °C 1011.4 hPa WNW 17.7 km/h 30.6 km/h 92 % 0 mm 9 W/m2
08:12 1.9 °C 0.7 °C 1011.4 hPa WNW 14.5 km/h 19.3 km/h 92 % 0 mm 11 W/m2
08:17 1.9 °C 0.7 °C 1011.4 hPa WNW 12.9 km/h 19.3 km/h 92 % 0 mm 12 W/m2
08:22 2 °C 0.8 °C 1011.4 hPa WNW 14.5 km/h 19.3 km/h 92 % 0 mm 14 W/m2
08:27 2 °C 0.8 °C 1011.4 hPa WNW 9.7 km/h 19.3 km/h 92 % 0 mm 16 W/m2
08:32 2 °C 0.8 °C 1011.7 hPa WNW 11.3 km/h 17.7 km/h 92 % 0 mm 21 W/m2
08:37 2 °C 0.8 °C 1011.7 hPa WNW 8 km/h 14.5 km/h 92 % 0 mm 26 W/m2
08:42 2 °C 0.8 °C 1011.7 hPa WNW 9.7 km/h 19.3 km/h 92 % 0 mm 60 W/m2
08:47 2.1 °C 0.9 °C 1011.7 hPa West 9.7 km/h 14.5 km/h 92 % 0 mm 63 W/m2
08:48 2.2 °C 1.1 °C 1011.7 hPa West 9.7 km/h 17.7 km/h 92 % 0 mm 58 W/m2
08:53 2.2 °C 1.1 °C 1011.7 hPa West 9.7 km/h 14.5 km/h 92 % 0 mm 56 W/m2
08:58 2.3 °C 1.1 °C 1012.1 hPa West 11.3 km/h 16.1 km/h 92 % 0 mm 65 W/m2
09:04 2.3 °C 1.1 °C 1012.1 hPa WNW 11.3 km/h 17.7 km/h 92 % 0 mm 72 W/m2
09:09 2.4 °C 1.2 °C 1012.1 hPa WNW 12.9 km/h 24.1 km/h 92 % 0.25 mm 88 W/m2
09:14 2.4 °C 1.2 °C 1012.1 hPa WNW 12.9 km/h 17.7 km/h 92 % 0.25 mm 81 W/m2
09:19 2.5 °C 1.3 °C 1012.4 hPa WNW 9.7 km/h 16.1 km/h 92 % 0.25 mm 81 W/m2
09:24 2.6 °C 1.4 °C 1012.4 hPa WNW 12.9 km/h 17.7 km/h 92 % 0.25 mm 86 W/m2
09:29 2.7 °C 1.7 °C 1012.4 hPa WNW 11.3 km/h 16.1 km/h 93 % 0.25 mm 88 W/m2
09:34 2.7 °C 1.7 °C 1012.4 hPa West 12.9 km/h 25.7 km/h 93 % 0.25 mm 116 W/m2
09:39 2.8 °C 1.6 °C 1012.4 hPa West 12.9 km/h 19.3 km/h 92 % 0.25 mm 49 W/m2
09:44 2.9 °C 1.7 °C 1012.4 hPa West 16.1 km/h 29 km/h 92 % 0.25 mm 40 W/m2
09:49 2.9 °C 1.6 °C 1012.4 hPa West 16.1 km/h 24.1 km/h 91 % 0.25 mm 42 W/m2
09:54 2.8 °C 1.5 °C 1012.4 hPa West 16.1 km/h 24.1 km/h 91 % 0.25 mm 56 W/m2
09:59 2.9 °C 1.6 °C 1012.4 hPa West 14.5 km/h 25.7 km/h 91 % 0.25 mm 49 W/m2
10:04 2.9 °C 1.6 °C 1012.4 hPa West 14.5 km/h 22.5 km/h 91 % 0.25 mm 53 W/m2
10:09 2.9 °C 1.6 °C 1012.4 hPa West 11.3 km/h 20.9 km/h 91 % 0 mm 67 W/m2
10:14 3 °C 1.7 °C 1012.4 hPa WNW 12.9 km/h 20.9 km/h 91 % 0 mm 62 W/m2
10:16 3.1 °C 1.8 °C 1012.8 hPa WNW 16.1 km/h 20.9 km/h 91 % 0 mm 204 W/m2
10:21 3.2 °C 1.9 °C 1012.4 hPa WNW 11.3 km/h 17.7 km/h 91 % 0 mm 246 W/m2
10:26 3.4 °C 2.1 °C 1012.4 hPa WNW 16.1 km/h 24.1 km/h 91 % 0 mm 251 W/m2
10:31 3.8 °C 2.4 °C 1012.4 hPa West 16.1 km/h 20.9 km/h 91 % 0 mm 262 W/m2
10:36 3.9 °C 2.4 °C 1012.4 hPa West 14.5 km/h 19.3 km/h 90 % 0 mm 264 W/m2
10:41 4.2 °C 2.6 °C 1012.4 hPa West 14.5 km/h 24.1 km/h 89 % 0 mm 264 W/m2
10:46 4.3 °C 2.7 °C 1012.8 hPa West 16.1 km/h 24.1 km/h 89 % 0 mm 251 W/m2
10:51 4.4 °C 2.6 °C 1012.8 hPa West 11.3 km/h 19.3 km/h 88 % 0 mm 265 W/m2
10:56 4.5 °C 2.7 °C 1012.8 hPa WNW 9.7 km/h 14.5 km/h 88 % 0 mm 258 W/m2
11:01 4.6 °C 2.8 °C 1012.8 hPa WNW 11.3 km/h 17.7 km/h 88 % 0 mm 253 W/m2
11:06 4.7 °C 2.7 °C 1012.8 hPa WNW 9.7 km/h 20.9 km/h 87 % 0 mm 271 W/m2
11:11 4.9 °C 2.9 °C 1013.1 hPa WNW 11.3 km/h 20.9 km/h 87 % 0 mm 279 W/m2
11:16 5 °C 2.8 °C 1013.1 hPa WNW 9.7 km/h 16.1 km/h 86 % 0 mm 283 W/m2
11:17 5.1 °C 2.9 °C 1013.1 hPa WNW 11.3 km/h 20.9 km/h 86 % 0 mm 287 W/m2
11:22 5.1 °C 2.8 °C 1013.1 hPa WNW 11.3 km/h 19.3 km/h 85 % 0 mm 260 W/m2
11:27 5.2 °C 2.9 °C 1013.1 hPa WNW 11.3 km/h 16.1 km/h 85 % 0 mm 239 W/m2
11:32 5.2 °C 2.9 °C 1013.1 hPa WNW 11.3 km/h 17.7 km/h 85 % 0 mm 283 W/m2
11:37 5.2 °C 2.9 °C 1013.1 hPa WNW 14.5 km/h 24.1 km/h 85 % 0 mm 285 W/m2
11:42 5.3 °C 2.8 °C 1013.1 hPa WNW 19.3 km/h 30.6 km/h 84 % 0 mm 285 W/m2
11:47 5.3 °C 2.8 °C 1013.1 hPa WNW 16.1 km/h 24.1 km/h 84 % 0 mm 285 W/m2
11:52 5.4 °C 2.7 °C 1013.1 hPa WNW 17.7 km/h 37 km/h 83 % 0 mm 281 W/m2
11:57 5.5 °C 2.8 °C 1013.1 hPa West 20.9 km/h 33.8 km/h 83 % 0 mm 281 W/m2
12:02 5.6 °C 2.8 °C 1013.1 hPa West 24.1 km/h 37 km/h 82 % 0 mm 279 W/m2
12:12 5.6 °C 2.8 °C 1013.4 hPa WNW 19.3 km/h 32.2 km/h 82 % 0 mm 278 W/m2
12:17 5.7 °C 2.9 °C 1013.1 hPa WNW 19.3 km/h 33.8 km/h 82 % 0 mm 276 W/m2
12:22 5.8 °C 2.8 °C 1013.4 hPa WNW 19.3 km/h 37 km/h 81 % 0 mm 276 W/m2
12:27 5.8 °C 2.6 °C 1013.4 hPa WNW 19.3 km/h 32.2 km/h 80 % 0 mm 274 W/m2
12:28 5.8 °C 2.6 °C 1013.4 hPa WNW 20.9 km/h 32.2 km/h 80 % 0 mm 272 W/m2
12:33 5.9 °C 2.7 °C 1013.4 hPa WNW 22.5 km/h 32.2 km/h 80 % 0 mm 271 W/m2
12:34 5.9 °C 2.6 °C 1013.4 hPa WNW 22.5 km/h 32.2 km/h 79 % 0 mm 271 W/m2
12:39 6 °C 2.6 °C 1013.4 hPa WNW 17.7 km/h 29 km/h 79 % 0 mm 269 W/m2
12:44 6.1 °C 2.7 °C 1013.4 hPa WNW 11.3 km/h 19.3 km/h 79 % 0 mm 264 W/m2
12:49 6.1 °C 2.6 °C 1013.4 hPa WNW 17.7 km/h 22.5 km/h 78 % 0 mm 260 W/m2
12:54 6.2 °C 2.7 °C 1013.4 hPa WNW 12.9 km/h 17.7 km/h 78 % 0 mm 258 W/m2
12:59 6.3 °C 2.7 °C 1013.4 hPa WNW 14.5 km/h 25.7 km/h 78 % 0 mm 255 W/m2
13:04 6.4 °C 2.8 °C 1013.8 hPa WNW 19.3 km/h 30.6 km/h 78 % 0 mm 251 W/m2
13:09 6.4 °C 2.8 °C 1013.8 hPa WNW 12.9 km/h 20.9 km/h 78 % 0 mm 250 W/m2
13:14 6.4 °C 2.8 °C 1013.4 hPa WNW 16.1 km/h 22.5 km/h 78 % 0 mm 199 W/m2
13:19 6.3 °C 2.7 °C 1013.4 hPa West 17.7 km/h 33.8 km/h 78 % 0 mm 248 W/m2
13:24 6.2 °C 2.4 °C 1013.8 hPa West 20.9 km/h 35.4 km/h 77 % 0 mm 132 W/m2
13:29 5.9 °C 2.6 °C 1013.8 hPa WNW 19.3 km/h 33.8 km/h 79 % 0 mm 149 W/m2
13:34 5.7 °C 2.3 °C 1013.8 hPa WNW 24.1 km/h 37 km/h 79 % 0 mm 65 W/m2
13:39 5.4 °C 2.2 °C 1013.8 hPa WNW 17.7 km/h 25.7 km/h 80 % 0 mm 74 W/m2
13:44 5.1 °C 2.1 °C 1013.8 hPa WNW 25.7 km/h 38.6 km/h 81 % 0 mm 90 W/m2
13:49 4.9 °C 2.1 °C 1013.8 hPa WNW 19.3 km/h 32.2 km/h 82 % 0 mm 98 W/m2
13:54 4.8 °C 2 °C 1013.8 hPa West 19.3 km/h 32.2 km/h 82 % 0 mm 104 W/m2
13:59 4.8 °C 2 °C 1013.8 hPa WNW 19.3 km/h 30.6 km/h 82 % 0 mm 109 W/m2
14:04 4.8 °C 2 °C 1013.8 hPa WNW 14.5 km/h 20.9 km/h 82 % 0 mm 97 W/m2
14:09 4.8 °C 2 °C 1013.8 hPa WNW 22.5 km/h 33.8 km/h 82 % 0 mm 83 W/m2
14:14 4.8 °C 1.8 °C 1013.8 hPa WNW 19.3 km/h 30.6 km/h 81 % 0 mm 74 W/m2
14:19 4.7 °C 1.7 °C 1013.8 hPa WNW 19.3 km/h 30.6 km/h 81 % 0 mm 72 W/m2
14:24 4.7 °C 1.7 °C 1013.8 hPa WNW 20.9 km/h 32.2 km/h 81 % 0 mm 72 W/m2
14:29 4.7 °C 1.7 °C 1013.8 hPa WNW 19.3 km/h 29 km/h 81 % 0 mm 81 W/m2
14:30 4.7 °C 1.7 °C 1013.8 hPa WNW 19.3 km/h 29 km/h 81 % 0 mm 81 W/m2
14:35 4.7 °C 1.7 °C 1013.8 hPa WNW 19.3 km/h 29 km/h 81 % 0 mm 69 W/m2
14:40 4.7 °C 1.7 °C 1013.8 hPa WNW 22.5 km/h 37 km/h 81 % 0 mm 54 W/m2
14:45 4.7 °C 1.7 °C 1014.1 hPa WNW 19.3 km/h 29 km/h 81 % 0 mm 40 W/m2
14:50 4.6 °C 1.6 °C 1014.1 hPa WNW 24.1 km/h 37 km/h 81 % 0 mm 40 W/m2
14:55 4.6 °C 1.8 °C 1014.1 hPa WNW 19.3 km/h 32.2 km/h 82 % 0 mm 30 W/m2
15:00 4.5 °C 1.7 °C 1014.4 hPa WNW 25.7 km/h 41.8 km/h 82 % 0 mm 23 W/m2
15:05 4.4 °C 1.9 °C 1014.4 hPa WNW 19.3 km/h 29 km/h 84 % 0 mm 28 W/m2
15:10 4.3 °C 1.8 °C 1014.4 hPa WNW 17.7 km/h 33.8 km/h 84 % 0 mm 32 W/m2
15:15 4.1 °C 1.8 °C 1014.4 hPa WNW 24.1 km/h 35.4 km/h 85 % 0 mm 30 W/m2
15:20 3.9 °C 1.6 °C 1014.1 hPa West 14.5 km/h 22.5 km/h 85 % 0 mm 28 W/m2
15:24 3.8 °C 1.7 °C 1014.1 hPa WNW 16.1 km/h 24.1 km/h 86 % 0 mm 32 W/m2
15:29 3.8 °C 1.7 °C 1014.4 hPa WNW 14.5 km/h 20.9 km/h 86 % 0 mm 33 W/m2
15:34 3.7 °C 1.6 °C 1014.4 hPa WNW 12.9 km/h 22.5 km/h 86 % 0 mm 28 W/m2
15:39 3.6 °C 1.6 °C 1014.4 hPa West 16.1 km/h 25.7 km/h 87 % 0 mm 23 W/m2
15:44 3.6 °C 1.6 °C 1014.4 hPa WNW 8 km/h 16.1 km/h 87 % 0 mm 16 W/m2
15:49 3.5 °C 1.6 °C 1014.4 hPa WNW 14.5 km/h 20.9 km/h 87 % 0 mm 12 W/m2
15:54 3.5 °C 1.6 °C 1014.4 hPa WNW 9.7 km/h 19.3 km/h 87 % 0 mm 9 W/m2
15:59 3.4 °C 1.3 °C 1014.4 hPa WNW 11.3 km/h 19.3 km/h 86 % 0 mm 9 W/m2
16:04 3.4 °C 1.3 °C 1014.4 hPa WNW 17.7 km/h 30.6 km/h 86 % 0 mm 7 W/m2
16:09 3.4 °C 1.3 °C 1014.4 hPa WNW 11.3 km/h 22.5 km/h 86 % 0 mm 0 W/m2
16:14 3.4 °C 1.3 °C 1014.4 hPa WNW 12.9 km/h 22.5 km/h 86 % 0 mm 0 W/m2
16:19 3.4 °C 1.3 °C 1014.8 hPa WNW 17.7 km/h 29 km/h 86 % 0 mm 0 W/m2
16:24 3.5 °C 1.4 °C 1014.4 hPa WNW 16.1 km/h 29 km/h 86 % 0 mm 0 W/m2
16:29 3.5 °C 1.4 °C 1014.4 hPa WNW 22.5 km/h 35.4 km/h 86 % 0 mm 0 W/m2
16:34 3.4 °C 1.3 °C 1014.4 hPa WNW 20.9 km/h 33.8 km/h 86 % 0 mm 0 W/m2
16:39 3.4 °C 1.3 °C 1014.4 hPa West 20.9 km/h 32.2 km/h 86 % 0 mm 0 W/m2
16:45 3.4 °C 1.3 °C 1014.4 hPa WNW 19.3 km/h 25.7 km/h 86 % 0 mm 0 W/m2
16:49 3.4 °C 1.3 °C 1014.8 hPa West 16.1 km/h 22.5 km/h 86 % 0 mm 0 W/m2
16:54 3.3 °C 1.2 °C 1014.8 hPa West 17.7 km/h 29 km/h 86 % 0 mm 0 W/m2
17:00 3.4 °C 1.1 °C 1014.4 hPa West 17.7 km/h 30.6 km/h 85 % 0 mm 0 W/m2
17:05 3.4 °C 1.1 °C 1014.8 hPa WNW 16.1 km/h 25.7 km/h 85 % 0 mm 0 W/m2
17:10 3.4 °C 1.1 °C 1014.8 hPa West 16.1 km/h 29 km/h 85 % 0 mm 0 W/m2
17:15 3.4 °C 1.1 °C 1014.8 hPa West 17.7 km/h 25.7 km/h 85 % 0 mm 0 W/m2
17:20 3.3 °C 1.2 °C 1014.8 hPa West 17.7 km/h 29 km/h 86 % 0 mm 0 W/m2
17:25 3.3 °C 1.2 °C 1014.8 hPa West 17.7 km/h 32.2 km/h 86 % 0 mm 0 W/m2
17:30 3.3 °C 1.2 °C 1014.8 hPa West 16.1 km/h 22.5 km/h 86 % 0 mm 0 W/m2
17:35 3.3 °C 1.2 °C 1015.1 hPa West 11.3 km/h 17.7 km/h 86 % 0 mm 0 W/m2
17:40 3.3 °C 1.2 °C 1015.1 hPa West 17.7 km/h 30.6 km/h 86 % 0 mm 0 W/m2
17:45 3.4 °C 1.3 °C 1015.1 hPa West 16.1 km/h 24.1 km/h 86 % 0 mm 0 W/m2
17:50 3.4 °C 1.3 °C 1014.8 hPa West 16.1 km/h 29 km/h 86 % 0 mm 0 W/m2
17:55 3.5 °C 1.4 °C 1015.1 hPa West 17.7 km/h 22.5 km/h 86 % 0 mm 0 W/m2
18:00 3.5 °C 1.4 °C 1015.1 hPa West 14.5 km/h 25.7 km/h 86 % 0 mm 0 W/m2
18:05 3.4 °C 1.3 °C 1015.1 hPa WNW 17.7 km/h 25.7 km/h 86 % 0 mm 0 W/m2
18:10 3.5 °C 1.6 °C 1015.1 hPa West 16.1 km/h 24.1 km/h 87 % 0 mm 0 W/m2
18:15 3.5 °C 1.6 °C 1015.1 hPa West 19.3 km/h 37 km/h 87 % 0 mm 0 W/m2
18:20 3.5 °C 1.6 °C 1015.1 hPa West 16.1 km/h 25.7 km/h 87 % 0 mm 0 W/m2
18:25 3.5 °C 1.4 °C 1015.1 hPa West 16.1 km/h 32.2 km/h 86 % 0 mm 0 W/m2
18:30 3.6 °C 1.5 °C 1015.1 hPa West 17.7 km/h 32.2 km/h 86 % 0 mm 0 W/m2
18:35 3.6 °C 1.6 °C 1015.1 hPa West 17.7 km/h 29 km/h 87 % 0 mm 0 W/m2
18:40 3.6 °C 1.6 °C 1015.1 hPa West 17.7 km/h 25.7 km/h 87 % 0 mm 0 W/m2
18:45 3.6 °C 1.6 °C 1015.1 hPa West 17.7 km/h 32.2 km/h 87 % 0 mm 0 W/m2
18:50 3.6 °C 1.6 °C 1015.1 hPa West 17.7 km/h 25.7 km/h 87 % 0 mm 0 W/m2
18:56 3.6 °C 1.6 °C 1015.1 hPa West 17.7 km/h 29 km/h 87 % 0 mm 0 W/m2
19:01 3.7 °C 1.7 °C 1015.1 hPa West 19.3 km/h 37 km/h 87 % 0 mm 0 W/m2
19:06 3.8 °C 1.8 °C 1015.1 hPa West 27.4 km/h 41.8 km/h 87 % 0 mm 0 W/m2
19:11 3.8 °C 1.8 °C 1015.5 hPa West 22.5 km/h 37 km/h 87 % 0 mm 0 W/m2
19:16 3.8 °C 1.8 °C 1015.5 hPa West 22.5 km/h 37 km/h 87 % 0 mm 0 W/m2
19:21 3.7 °C 1.7 °C 1015.5 hPa WNW 19.3 km/h 37 km/h 87 % 0 mm 0 W/m2
19:26 3.7 °C 1.7 °C 1015.5 hPa WNW 19.3 km/h 30.6 km/h 87 % 0 mm 0 W/m2
19:31 3.6 °C 1.8 °C 1015.8 hPa WNW 19.3 km/h 30.6 km/h 88 % 0 mm 0 W/m2
19:36 3.5 °C 1.6 °C 1015.8 hPa WNW 17.7 km/h 25.7 km/h 87 % 0 mm 0 W/m2
19:41 3.4 °C 1.4 °C 1015.8 hPa West 19.3 km/h 32.2 km/h 87 % 0 mm 0 W/m2
19:46 3.4 °C 1.4 °C 1015.8 hPa West 17.7 km/h 32.2 km/h 87 % 0 mm 0 W/m2
19:51 3.4 °C 1.4 °C 1015.8 hPa WNW 19.3 km/h 29 km/h 87 % 0 mm 0 W/m2
19:56 3.4 °C 1.4 °C 1015.8 hPa West 22.5 km/h 37 km/h 87 % 0 mm 0 W/m2
20:01 3.4 °C 1.4 °C 1015.8 hPa WNW 22.5 km/h 35.4 km/h 87 % 0 mm 0 W/m2
20:06 3.5 °C 1.6 °C 1015.8 hPa WNW 22.5 km/h 32.2 km/h 87 % 0 mm 0 W/m2
20:11 3.5 °C 1.6 °C 1015.8 hPa WNW 17.7 km/h 29 km/h 87 % 0 mm 0 W/m2
20:16 3.4 °C 1.4 °C 1015.8 hPa West 22.5 km/h 37 km/h 87 % 0 mm 0 W/m2
20:21 3.4 °C 1.4 °C 1016.1 hPa West 20.9 km/h 33.8 km/h 87 % 0 mm 0 W/m2
20:26 3.4 °C 1.4 °C 1016.1 hPa WNW 20.9 km/h 33.8 km/h 87 % 0 mm 0 W/m2
20:31 3.4 °C 1.4 °C 1016.1 hPa WNW 22.5 km/h 33.8 km/h 87 % 0 mm 0 W/m2
20:36 3.4 °C 1.4 °C 1015.8 hPa WNW 17.7 km/h 32.2 km/h 87 % 0 mm 0 W/m2
20:41 3.4 °C 1.4 °C 1016.1 hPa West 17.7 km/h 32.2 km/h 87 % 0 mm 0 W/m2
20:46 3.4 °C 1.4 °C 1016.1 hPa WNW 22.5 km/h 38.6 km/h 87 % 0 mm 0 W/m2
20:51 3.4 °C 1.3 °C 1016.1 hPa WNW 20.9 km/h 37 km/h 86 % 0 mm 0 W/m2
20:56 3.4 °C 1.3 °C 1016.1 hPa WNW 20.9 km/h 32.2 km/h 86 % 0 mm 0 W/m2
21:01 3.4 °C 1.3 °C 1016.1 hPa WNW 19.3 km/h 30.6 km/h 86 % 0 mm 0 W/m2
21:06 3.4 °C 1.4 °C 1016.1 hPa WNW 19.3 km/h 29 km/h 87 % 0 mm 0 W/m2
21:11 3.3 °C 1.3 °C 1016.1 hPa WNW 19.3 km/h 30.6 km/h 87 % 0 mm 0 W/m2
21:16 3.3 °C 1.3 °C 1016.1 hPa WNW 20.9 km/h 29 km/h 87 % 0 mm 0 W/m2
21:21 3.3 °C 1.2 °C 1016.1 hPa WNW 19.3 km/h 29 km/h 86 % 0 mm 0 W/m2
21:26 3.3 °C 1.2 °C 1016.1 hPa WNW 19.3 km/h 24.1 km/h 86 % 0 mm 0 W/m2
21:36 3.4 °C 1.1 °C 1016.5 hPa WNW 19.3 km/h 30.6 km/h 85 % 0 mm 0 W/m2
21:41 3.5 °C 1.2 °C 1016.5 hPa WNW 20.9 km/h 32.2 km/h 85 % 0 mm 0 W/m2
21:46 3.6 °C 1.3 °C 1016.5 hPa WNW 17.7 km/h 30.6 km/h 85 % 0 mm 0 W/m2
21:51 3.6 °C 1.3 °C 1016.5 hPa WNW 16.1 km/h 30.6 km/h 85 % 0 mm 0 W/m2
21:56 3.6 °C 1.3 °C 1016.5 hPa WNW 16.1 km/h 29 km/h 85 % 0 mm 0 W/m2
22:01 3.5 °C 1.4 °C 1016.5 hPa WNW 17.7 km/h 25.7 km/h 86 % 0 mm 0 W/m2
22:07 3.5 °C 1.4 °C 1016.8 hPa WNW 25.7 km/h 40.2 km/h 86 % 0 mm 0 W/m2
22:12 3.6 °C 1.5 °C 1016.5 hPa West 19.3 km/h 32.2 km/h 86 % 0 mm 0 W/m2
22:17 3.5 °C 1.4 °C 1016.5 hPa WNW 22.5 km/h 35.4 km/h 86 % 0 mm 0 W/m2
22:22 3.4 °C 1.4 °C 1016.8 hPa WNW 24.1 km/h 40.2 km/h 87 % 0 mm 0 W/m2
22:27 3.4 °C 1.4 °C 1016.8 hPa West 17.7 km/h 33.8 km/h 87 % 0 mm 0 W/m2
22:32 3.3 °C 1.3 °C 1016.8 hPa WNW 22.5 km/h 38.6 km/h 87 % 0 mm 0 W/m2
22:37 3.2 °C 1.2 °C 1016.8 hPa WNW 17.7 km/h 29 km/h 87 % 0 mm 0 W/m2
22:42 3.2 °C 1.2 °C 1016.8 hPa WNW 17.7 km/h 32.2 km/h 87 % 0 mm 0 W/m2
22:47 3.2 °C 1.2 °C 1016.8 hPa West 19.3 km/h 29 km/h 87 % 0 mm 0 W/m2
22:52 3.1 °C 1.2 °C 1016.8 hPa West 17.7 km/h 25.7 km/h 87 % 0 mm 0 W/m2
22:57 3.2 °C 1.2 °C 1016.8 hPa West 22.5 km/h 30.6 km/h 87 % 0 mm 0 W/m2
23:02 3.2 °C 1.2 °C 1016.8 hPa West 19.3 km/h 30.6 km/h 87 % 0 mm 0 W/m2
23:07 3.2 °C 1.2 °C 1016.8 hPa West 25.7 km/h 38.6 km/h 87 % 0 mm 0 W/m2
23:12 3.2 °C 1.2 °C 1016.5 hPa West 22.5 km/h 38.6 km/h 87 % 0 mm 0 W/m2
23:17 3.3 °C 1.3 °C 1016.8 hPa West 20.9 km/h 32.2 km/h 87 % 0 mm 0 W/m2
23:22 3.3 °C 1.3 °C 1016.8 hPa West 22.5 km/h 35.4 km/h 87 % 0 mm 0 W/m2
23:27 3.3 °C 1.3 °C 1016.8 hPa West 22.5 km/h 37 km/h 87 % 0 mm 0 W/m2
23:32 3.3 °C 1.2 °C 1016.8 hPa West 17.7 km/h 30.6 km/h 86 % 0 mm 0 W/m2
23:37 3.3 °C 1.2 °C 1016.8 hPa West 19.3 km/h 33.8 km/h 86 % 0 mm 0 W/m2
23:42 3.3 °C 1.3 °C 1016.8 hPa West 20.9 km/h 32.2 km/h 87 % 0 mm 0 W/m2
23:47 3.3 °C 1.3 °C 1016.8 hPa West 24.1 km/h 38.6 km/h 87 % 0 mm 0 W/m2
23:52 3.3 °C 1.3 °C 1016.8 hPa West 22.5 km/h 33.8 km/h 87 % 0 mm 0 W/m2
23:57 3.4 °C 1.4 °C 1017.2 hPa WNW 22.5 km/h 35.4 km/h 87 % 0 mm 0 W/m2
Delerius-Weather
Compliments of Weather Underground - 2.25 mb

Data updates at regular intervals.